sensor_id;sensor_type;location;lat;lon;timestamp;P1;durP1;ratioP1;P2;durP2;ratioP2
16502;SDS011;53067;48.114;11.694;2023-05-10T00:01:19;0.97;;;0.97;;
16502;SDS011;53067;48.114;11.694;2023-05-10T00:03:46;1.20;;;1.20;;
16502;SDS011;53067;48.114;11.694;2023-05-10T00:06:14;0.90;;;0.90;;
16502;SDS011;53067;48.114;11.694;2023-05-10T00:08:42;1.67;;;1.20;;
16502;SDS011;53067;48.114;11.694;2023-05-10T00:11:09;1.10;;;1.10;;
16502;SDS011;53067;48.114;11.694;2023-05-10T00:13:37;1.00;;;1.00;;
16502;SDS011;53067;48.114;11.694;2023-05-10T00:16:04;0.87;;;0.80;;
16502;SDS011;53067;48.114;11.694;2023-05-10T00:18:32;0.80;;;0.80;;
16502;SDS011;53067;48.114;11.694;2023-05-10T00:21:00;1.30;;;1.20;;
16502;SDS011;53067;48.114;11.694;2023-05-10T00:23:27;0.90;;;0.90;;
16502;SDS011;53067;48.114;11.694;2023-05-10T00:25:55;1.07;;;1.07;;
16502;SDS011;53067;48.114;11.694;2023-05-10T00:28:23;0.90;;;0.90;;
16502;SDS011;53067;48.114;11.694;2023-05-10T00:30:50;1.27;;;1.17;;
16502;SDS011;53067;48.114;11.694;2023-05-10T00:33:18;0.80;;;0.80;;
16502;SDS011;53067;48.114;11.694;2023-05-10T00:35:54;0.80;;;0.80;;
16502;SDS011;53067;48.114;11.694;2023-05-10T00:38:21;0.90;;;0.90;;
16502;SDS011;53067;48.114;11.694;2023-05-10T00:40:49;0.80;;;0.80;;
16502;SDS011;53067;48.114;11.694;2023-05-10T00:43:16;1.20;;;0.70;;
16502;SDS011;53067;48.114;11.694;2023-05-10T00:45:44;1.03;;;1.00;;
16502;SDS011;53067;48.114;11.694;2023-05-10T00:48:12;1.70;;;0.70;;
16502;SDS011;53067;48.114;11.694;2023-05-10T00:50:40;0.90;;;0.90;;
16502;SDS011;53067;48.114;11.694;2023-05-10T00:53:07;2.00;;;0.90;;
16502;SDS011;53067;48.114;11.694;2023-05-10T00:55:36;0.90;;;0.80;;
16502;SDS011;53067;48.114;11.694;2023-05-10T00:58:04;0.90;;;0.90;;
16502;SDS011;53067;48.114;11.694;2023-05-10T01:00:32;0.80;;;0.80;;
16502;SDS011;53067;48.114;11.694;2023-05-10T01:03:00;0.70;;;0.70;;
16502;SDS011;53067;48.114;11.694;2023-05-10T01:05:28;0.90;;;0.90;;
16502;SDS011;53067;48.114;11.694;2023-05-10T01:07:55;0.70;;;0.60;;
16502;SDS011;53067;48.114;11.694;2023-05-10T01:10:44;1.77;;;0.80;;
16502;SDS011;53067;48.114;11.694;2023-05-10T01:13:14;1.33;;;0.90;;
16502;SDS011;53067;48.114;11.694;2023-05-10T01:15:47;0.80;;;0.80;;
16502;SDS011;53067;48.114;11.694;2023-05-10T01:18:15;0.80;;;0.80;;
16502;SDS011;53067;48.114;11.694;2023-05-10T01:20:46;0.90;;;0.90;;
16502;SDS011;53067;48.114;11.694;2023-05-10T01:34:39;0.80;;;0.80;;
16502;SDS011;53067;48.114;11.694;2023-05-10T01:37:07;0.70;;;0.70;;
16502;SDS011;53067;48.114;11.694;2023-05-10T01:39:41;0.70;;;0.70;;
16502;SDS011;53067;48.114;11.694;2023-05-10T01:42:10;0.70;;;0.70;;
16502;SDS011;53067;48.114;11.694;2023-05-10T01:44:40;0.83;;;0.83;;
16502;SDS011;53067;48.114;11.694;2023-05-10T01:50:16;1.33;;;0.77;;
16502;SDS011;53067;48.114;11.694;2023-05-10T01:52:51;0.60;;;0.60;;
16502;SDS011;53067;48.114;11.694;2023-05-10T01:55:16;0.70;;;0.70;;
16502;SDS011;53067;48.114;11.694;2023-05-10T01:57:48;1.33;;;0.70;;
16502;SDS011;53067;48.114;11.694;2023-05-10T02:00:18;0.50;;;0.50;;
16502;SDS011;53067;48.114;11.694;2023-05-10T02:02:47;1.13;;;1.07;;
16502;SDS011;53067;48.114;11.694;2023-05-10T02:05:16;0.67;;;0.67;;
16502;SDS011;53067;48.114;11.694;2023-05-10T02:07:45;0.67;;;0.67;;
16502;SDS011;53067;48.114;11.694;2023-05-10T02:10:14;0.60;;;0.60;;
16502;SDS011;53067;48.114;11.694;2023-05-10T02:12:44;0.90;;;0.70;;
16502;SDS011;53067;48.114;11.694;2023-05-10T02:15:16;0.60;;;0.60;;
16502;SDS011;53067;48.114;11.694;2023-05-10T02:17:45;0.60;;;0.60;;
16502;SDS011;53067;48.114;11.694;2023-05-10T02:20:14;0.77;;;0.77;;
16502;SDS011;53067;48.114;11.694;2023-05-10T02:22:43;1.03;;;0.70;;
16502;SDS011;53067;48.114;11.694;2023-05-10T02:25:13;0.57;;;0.57;;
16502;SDS011;53067;48.114;11.694;2023-05-10T02:27:42;0.90;;;0.90;;
16502;SDS011;53067;48.114;11.694;2023-05-10T02:30:20;0.57;;;0.57;;
16502;SDS011;53067;48.114;11.694;2023-05-10T02:32:49;0.70;;;0.70;;
16502;SDS011;53067;48.114;11.694;2023-05-10T02:35:18;0.50;;;0.50;;
16502;SDS011;53067;48.114;11.694;2023-05-10T02:37:46;0.70;;;0.70;;
16502;SDS011;53067;48.114;11.694;2023-05-10T02:40:15;0.50;;;0.50;;
16502;SDS011;53067;48.114;11.694;2023-05-10T02:42:45;0.60;;;0.60;;
16502;SDS011;53067;48.114;11.694;2023-05-10T02:45:15;0.73;;;0.73;;
16502;SDS011;53067;48.114;11.694;2023-05-10T02:47:45;1.00;;;0.80;;
16502;SDS011;53067;48.114;11.694;2023-05-10T02:50:12;0.70;;;0.70;;
16502;SDS011;53067;48.114;11.694;2023-05-10T02:52:42;1.27;;;0.77;;
16502;SDS011;53067;48.114;11.694;2023-05-10T02:55:11;0.80;;;0.80;;
16502;SDS011;53067;48.114;11.694;2023-05-10T02:57:43;0.60;;;0.60;;
16502;SDS011;53067;48.114;11.694;2023-05-10T03:00:12;0.80;;;0.80;;
16502;SDS011;53067;48.114;11.694;2023-05-10T03:02:40;0.57;;;0.57;;
16502;SDS011;53067;48.114;11.694;2023-05-10T03:05:08;0.80;;;0.80;;
16502;SDS011;53067;48.114;11.694;2023-05-10T03:07:35;1.13;;;0.60;;
16502;SDS011;53067;48.114;11.694;2023-05-10T03:10:03;0.60;;;0.60;;
16502;SDS011;53067;48.114;11.694;2023-05-10T03:18:21;0.60;;;0.60;;
16502;SDS011;53067;48.114;11.694;2023-05-10T03:20:50;0.70;;;0.70;;
16502;SDS011;53067;48.114;11.694;2023-05-10T03:23:27;0.70;;;0.70;;
16502;SDS011;53067;48.114;11.694;2023-05-10T03:25:55;0.83;;;0.83;;
16502;SDS011;53067;48.114;11.694;2023-05-10T03:28:22;0.63;;;0.50;;
16502;SDS011;53067;48.114;11.694;2023-05-10T03:30:55;0.50;;;0.50;;
16502;SDS011;53067;48.114;11.694;2023-05-10T03:33:24;0.70;;;0.70;;
16502;SDS011;53067;48.114;11.694;2023-05-10T03:35:51;0.57;;;0.57;;
16502;SDS011;53067;48.114;11.694;2023-05-10T03:38:19;0.67;;;0.50;;
16502;SDS011;53067;48.114;11.694;2023-05-10T03:40:46;0.50;;;0.50;;
16502;SDS011;53067;48.114;11.694;2023-05-10T03:43:14;3.43;;;0.73;;
16502;SDS011;53067;48.114;11.694;2023-05-10T03:45:41;0.90;;;0.73;;
16502;SDS011;53067;48.114;11.694;2023-05-10T03:48:09;0.70;;;0.70;;
16502;SDS011;53067;48.114;11.694;2023-05-10T03:50:37;1.00;;;0.70;;
16502;SDS011;53067;48.114;11.694;2023-05-10T03:53:04;0.53;;;0.53;;
16502;SDS011;53067;48.114;11.694;2023-05-10T03:55:31;0.43;;;0.43;;
16502;SDS011;53067;48.114;11.694;2023-05-10T03:58:01;0.50;;;0.43;;
16502;SDS011;53067;48.114;11.694;2023-05-10T04:00:28;0.50;;;0.50;;
16502;SDS011;53067;48.114;11.694;2023-05-10T04:02:56;0.50;;;0.50;;
16502;SDS011;53067;48.114;11.694;2023-05-10T04:05:24;0.50;;;0.50;;
16502;SDS011;53067;48.114;11.694;2023-05-10T04:07:51;0.60;;;0.60;;
16502;SDS011;53067;48.114;11.694;2023-05-10T04:10:19;0.50;;;0.50;;
16502;SDS011;53067;48.114;11.694;2023-05-10T04:12:47;0.40;;;0.40;;
16502;SDS011;53067;48.114;11.694;2023-05-10T04:15:14;1.27;;;0.50;;
16502;SDS011;53067;48.114;11.694;2023-05-10T04:17:42;0.67;;;0.47;;
16502;SDS011;53067;48.114;11.694;2023-05-10T04:20:11;0.40;;;0.40;;
16502;SDS011;53067;48.114;11.694;2023-05-10T04:22:39;0.80;;;0.50;;
16502;SDS011;53067;48.114;11.694;2023-05-10T04:25:07;0.60;;;0.60;;
16502;SDS011;53067;48.114;11.694;2023-05-10T04:27:34;0.50;;;0.50;;
16502;SDS011;53067;48.114;11.694;2023-05-10T04:30:02;0.57;;;0.40;;
16502;SDS011;53067;48.114;11.694;2023-05-10T04:32:37;0.50;;;0.50;;
16502;SDS011;53067;48.114;11.694;2023-05-10T04:35:05;1.13;;;0.40;;
16502;SDS011;53067;48.114;11.694;2023-05-10T04:37:33;0.40;;;0.40;;
16502;SDS011;53067;48.114;11.694;2023-05-10T04:40:00;0.43;;;0.43;;
16502;SDS011;53067;48.114;11.694;2023-05-10T04:42:29;0.30;;;0.30;;
16502;SDS011;53067;48.114;11.694;2023-05-10T04:44:56;0.40;;;0.40;;
16502;SDS011;53067;48.114;11.694;2023-05-10T04:47:23;0.30;;;0.30;;
16502;SDS011;53067;48.114;11.694;2023-05-10T04:49:51;0.40;;;0.40;;
16502;SDS011;53067;48.114;11.694;2023-05-10T04:52:18;0.40;;;0.40;;
16502;SDS011;53067;48.114;11.694;2023-05-10T04:54:46;0.43;;;0.43;;
16502;SDS011;53067;48.114;11.694;2023-05-10T04:57:13;0.50;;;0.50;;
16502;SDS011;53067;48.114;11.694;2023-05-10T04:59:41;0.90;;;0.40;;
16502;SDS011;53067;48.114;11.694;2023-05-10T05:02:08;0.73;;;0.40;;
16502;SDS011;53067;48.114;11.694;2023-05-10T05:04:36;0.30;;;0.30;;
16502;SDS011;53067;48.114;11.694;2023-05-10T05:07:04;1.13;;;0.40;;
16502;SDS011;53067;48.114;11.694;2023-05-10T05:09:32;1.53;;;0.40;;
16502;SDS011;53067;48.114;11.694;2023-05-10T05:12:00;0.50;;;0.43;;
16502;SDS011;53067;48.114;11.694;2023-05-10T05:14:27;0.40;;;0.40;;
16502;SDS011;53067;48.114;11.694;2023-05-10T05:16:55;0.93;;;0.93;;
16502;SDS011;53067;48.114;11.694;2023-05-10T05:19:23;0.73;;;0.60;;
16502;SDS011;53067;48.114;11.694;2023-05-10T05:21:50;0.60;;;0.60;;
16502;SDS011;53067;48.114;11.694;2023-05-10T05:24:18;0.50;;;0.50;;
16502;SDS011;53067;48.114;11.694;2023-05-10T05:26:45;0.40;;;0.40;;
16502;SDS011;53067;48.114;11.694;2023-05-10T05:29:13;0.60;;;0.50;;
16502;SDS011;53067;48.114;11.694;2023-05-10T05:31:40;1.70;;;0.50;;
16502;SDS011;53067;48.114;11.694;2023-05-10T05:34:08;0.43;;;0.43;;
16502;SDS011;53067;48.114;11.694;2023-05-10T05:36:36;1.23;;;0.50;;
16502;SDS011;53067;48.114;11.694;2023-05-10T05:39:06;0.40;;;0.40;;
16502;SDS011;53067;48.114;11.694;2023-05-10T05:41:34;0.47;;;0.40;;
16502;SDS011;53067;48.114;11.694;2023-05-10T05:44:01;1.43;;;0.40;;
16502;SDS011;53067;48.114;11.694;2023-05-10T05:46:29;0.40;;;0.40;;
16502;SDS011;53067;48.114;11.694;2023-05-10T05:48:56;0.30;;;0.30;;
16502;SDS011;53067;48.114;11.694;2023-05-10T05:51:24;0.93;;;0.40;;
16502;SDS011;53067;48.114;11.694;2023-05-10T05:53:51;3.20;;;0.60;;
16502;SDS011;53067;48.114;11.694;2023-05-10T05:56:19;0.80;;;0.80;;
16502;SDS011;53067;48.114;11.694;2023-05-10T05:58:48;0.60;;;0.60;;
16502;SDS011;53067;48.114;11.694;2023-05-10T06:01:16;1.07;;;0.50;;
16502;SDS011;53067;48.114;11.694;2023-05-10T06:03:43;0.60;;;0.60;;
16502;SDS011;53067;48.114;11.694;2023-05-10T06:06:11;0.60;;;0.57;;
16502;SDS011;53067;48.114;11.694;2023-05-10T06:08:39;1.03;;;0.50;;
16502;SDS011;53067;48.114;11.694;2023-05-10T06:11:06;0.53;;;0.40;;
16502;SDS011;53067;48.114;11.694;2023-05-10T06:13:34;0.63;;;0.63;;
16502;SDS011;53067;48.114;11.694;2023-05-10T06:16:06;0.63;;;0.60;;
16502;SDS011;53067;48.114;11.694;2023-05-10T06:18:31;1.13;;;0.50;;
16502;SDS011;53067;48.114;11.694;2023-05-10T06:20:58;1.80;;;0.70;;
16502;SDS011;53067;48.114;11.694;2023-05-10T06:23:26;1.90;;;0.77;;
16502;SDS011;53067;48.114;11.694;2023-05-10T06:25:54;1.50;;;0.90;;
16502;SDS011;53067;48.114;11.694;2023-05-10T06:28:22;0.70;;;0.70;;
16502;SDS011;53067;48.114;11.694;2023-05-10T06:30:49;0.80;;;0.80;;
16502;SDS011;53067;48.114;11.694;2023-05-10T06:33:17;0.60;;;0.60;;
16502;SDS011;53067;48.114;11.694;2023-05-10T06:35:45;0.73;;;0.73;;
16502;SDS011;53067;48.114;11.694;2023-05-10T06:38:12;0.80;;;0.80;;
16502;SDS011;53067;48.114;11.694;2023-05-10T06:40:43;0.73;;;0.70;;
16502;SDS011;53067;48.114;11.694;2023-05-10T06:43:10;1.67;;;0.77;;
16502;SDS011;53067;48.114;11.694;2023-05-10T06:45:38;0.70;;;0.67;;
16502;SDS011;53067;48.114;11.694;2023-05-10T06:48:06;1.07;;;1.00;;
16502;SDS011;53067;48.114;11.694;2023-05-10T06:50:34;0.73;;;0.70;;
16502;SDS011;53067;48.114;11.694;2023-05-10T06:53:02;0.80;;;0.80;;
16502;SDS011;53067;48.114;11.694;2023-05-10T06:55:29;2.13;;;0.77;;
16502;SDS011;53067;48.114;11.694;2023-05-10T06:57:57;1.00;;;0.80;;
16502;SDS011;53067;48.114;11.694;2023-05-10T07:00:24;0.83;;;0.83;;
16502;SDS011;53067;48.114;11.694;2023-05-10T07:02:52;0.80;;;0.80;;
16502;SDS011;53067;48.114;11.694;2023-05-10T07:05:20;1.20;;;1.17;;
16502;SDS011;53067;48.114;11.694;2023-05-10T07:07:48;1.43;;;1.17;;
16502;SDS011;53067;48.114;11.694;2023-05-10T07:10:16;2.30;;;1.03;;
16502;SDS011;53067;48.114;11.694;2023-05-10T07:12:43;0.87;;;0.87;;
16502;SDS011;53067;48.114;11.694;2023-05-10T07:15:11;1.17;;;0.80;;
16502;SDS011;53067;48.114;11.694;2023-05-10T07:17:38;1.00;;;0.90;;
16502;SDS011;53067;48.114;11.694;2023-05-10T07:20:06;0.90;;;0.90;;
16502;SDS011;53067;48.114;11.694;2023-05-10T07:22:34;2.07;;;0.90;;
16502;SDS011;53067;48.114;11.694;2023-05-10T07:25:02;1.30;;;1.17;;
16502;SDS011;53067;48.114;11.694;2023-05-10T07:27:30;1.90;;;1.20;;
16502;SDS011;53067;48.114;11.694;2023-05-10T07:29:58;1.20;;;1.13;;
16502;SDS011;53067;48.114;11.694;2023-05-10T07:32:26;1.53;;;1.30;;
16502;SDS011;53067;48.114;11.694;2023-05-10T07:34:53;1.37;;;1.30;;
16502;SDS011;53067;48.114;11.694;2023-05-10T07:37:21;1.80;;;1.13;;
16502;SDS011;53067;48.114;11.694;2023-05-10T07:39:48;1.10;;;1.10;;
16502;SDS011;53067;48.114;11.694;2023-05-10T07:42:16;1.57;;;1.20;;
16502;SDS011;53067;48.114;11.694;2023-05-10T07:44:43;1.23;;;1.13;;
16502;SDS011;53067;48.114;11.694;2023-05-10T07:47:11;1.43;;;1.20;;
16502;SDS011;53067;48.114;11.694;2023-05-10T07:49:38;1.20;;;1.10;;
16502;SDS011;53067;48.114;11.694;2023-05-10T07:52:06;3.23;;;1.30;;
16502;SDS011;53067;48.114;11.694;2023-05-10T07:54:33;1.13;;;0.60;;
16502;SDS011;53067;48.114;11.694;2023-05-10T07:57:01;0.80;;;0.80;;
16502;SDS011;53067;48.114;11.694;2023-05-10T07:59:28;0.63;;;0.63;;
16502;SDS011;53067;48.114;11.694;2023-05-10T08:01:56;1.07;;;1.07;;
16502;SDS011;53067;48.114;11.694;2023-05-10T08:04:24;0.93;;;0.93;;
16502;SDS011;53067;48.114;11.694;2023-05-10T08:06:51;1.00;;;1.00;;
16502;SDS011;53067;48.114;11.694;2023-05-10T08:09:19;0.90;;;0.90;;
16502;SDS011;53067;48.114;11.694;2023-05-10T08:11:48;0.90;;;0.80;;
16502;SDS011;53067;48.114;11.694;2023-05-10T08:14:16;0.80;;;0.80;;
16502;SDS011;53067;48.114;11.694;2023-05-10T08:16:44;0.97;;;0.93;;
16502;SDS011;53067;48.114;11.694;2023-05-10T08:19:11;1.00;;;1.00;;
16502;SDS011;53067;48.114;11.694;2023-05-10T08:21:39;0.80;;;0.80;;
16502;SDS011;53067;48.114;11.694;2023-05-10T08:24:08;0.77;;;0.77;;
16502;SDS011;53067;48.114;11.694;2023-05-10T08:26:35;1.40;;;0.80;;
16502;SDS011;53067;48.114;11.694;2023-05-10T08:29:03;1.20;;;1.10;;
16502;SDS011;53067;48.114;11.694;2023-05-10T08:31:30;1.53;;;1.30;;
16502;SDS011;53067;48.114;11.694;2023-05-10T08:33:58;0.93;;;0.93;;
16502;SDS011;53067;48.114;11.694;2023-05-10T08:36:26;1.90;;;0.80;;
16502;SDS011;53067;48.114;11.694;2023-05-10T08:38:54;1.47;;;1.00;;
16502;SDS011;53067;48.114;11.694;2023-05-10T08:41:21;1.30;;;1.20;;
16502;SDS011;53067;48.114;11.694;2023-05-10T08:43:51;1.10;;;1.00;;
16502;SDS011;53067;48.114;11.694;2023-05-10T08:46:21;0.60;;;0.60;;
16502;SDS011;53067;48.114;11.694;2023-05-10T08:48:50;0.90;;;0.90;;
16502;SDS011;53067;48.114;11.694;2023-05-10T08:51:18;0.50;;;0.50;;
16502;SDS011;53067;48.114;11.694;2023-05-10T08:53:48;0.60;;;0.60;;
16502;SDS011;53067;48.114;11.694;2023-05-10T08:56:16;1.00;;;0.80;;
16502;SDS011;53067;48.114;11.694;2023-05-10T08:58:44;2.10;;;0.80;;
16502;SDS011;53067;48.114;11.694;2023-05-10T09:01:11;1.07;;;0.70;;
16502;SDS011;53067;48.114;11.694;2023-05-10T09:03:40;0.60;;;0.60;;
16502;SDS011;53067;48.114;11.694;2023-05-10T09:06:07;0.77;;;0.77;;
16502;SDS011;53067;48.114;11.694;2023-05-10T09:08:35;0.50;;;0.50;;
16502;SDS011;53067;48.114;11.694;2023-05-10T09:11:04;0.77;;;0.60;;
16502;SDS011;53067;48.114;11.694;2023-05-10T09:13:32;0.50;;;0.50;;
16502;SDS011;53067;48.114;11.694;2023-05-10T09:16:02;0.67;;;0.67;;
16502;SDS011;53067;48.114;11.694;2023-05-10T09:18:30;0.60;;;0.60;;
16502;SDS011;53067;48.114;11.694;2023-05-10T09:20:57;0.60;;;0.60;;
16502;SDS011;53067;48.114;11.694;2023-05-10T09:23:25;1.23;;;0.80;;
16502;SDS011;53067;48.114;11.694;2023-05-10T09:26:03;0.70;;;0.70;;
16502;SDS011;53067;48.114;11.694;2023-05-10T09:28:49;1.30;;;0.63;;
16502;SDS011;53067;48.114;11.694;2023-05-10T09:31:20;0.60;;;0.60;;
16502;SDS011;53067;48.114;11.694;2023-05-10T09:33:48;0.63;;;0.53;;
16502;SDS011;53067;48.114;11.694;2023-05-10T09:36:17;1.13;;;1.07;;
16502;SDS011;53067;48.114;11.694;2023-05-10T09:38:49;0.80;;;0.80;;
16502;SDS011;53067;48.114;11.694;2023-05-10T09:41:19;0.78;;;0.78;;
16502;SDS011;53067;48.114;11.694;2023-05-10T09:43:48;1.27;;;0.78;;
16502;SDS011;53067;48.114;11.694;2023-05-10T09:46:17;1.37;;;1.27;;
16502;SDS011;53067;48.114;11.694;2023-05-10T09:48:45;0.60;;;0.60;;
16502;SDS011;53067;48.114;11.694;2023-05-10T09:51:23;0.83;;;0.83;;
16502;SDS011;53067;48.114;11.694;2023-05-10T09:54:09;1.57;;;1.07;;
16502;SDS011;53067;48.114;11.694;2023-05-10T09:56:41;2.83;;;1.27;;
16502;SDS011;53067;48.114;11.694;2023-05-10T09:59:10;5.20;;;1.90;;
16502;SDS011;53067;48.114;11.694;2023-05-10T10:01:38;2.42;;;1.22;;
16502;SDS011;53067;48.114;11.694;2023-05-10T10:04:08;5.45;;;2.72;;
16502;SDS011;53067;48.114;11.694;2023-05-10T10:06:36;2.47;;;1.30;;
16502;SDS011;53067;48.114;11.694;2023-05-10T10:09:05;0.90;;;0.90;;
16502;SDS011;53067;48.114;11.694;2023-05-10T10:11:36;1.27;;;0.60;;
16502;SDS011;53067;48.114;11.694;2023-05-10T10:14:05;0.90;;;0.90;;
16502;SDS011;53067;48.114;11.694;2023-05-10T10:16:33;2.07;;;0.93;;
16502;SDS011;53067;48.114;11.694;2023-05-10T10:19:00;0.90;;;0.90;;
16502;SDS011;53067;48.114;11.694;2023-05-10T10:21:28;0.60;;;0.60;;
16502;SDS011;53067;48.114;11.694;2023-05-10T10:23:56;0.90;;;0.80;;
16502;SDS011;53067;48.114;11.694;2023-05-10T10:26:24;0.75;;;0.72;;
16502;SDS011;53067;48.114;11.694;2023-05-10T10:28:57;0.72;;;0.72;;
16502;SDS011;53067;48.114;11.694;2023-05-10T10:31:40;1.02;;;1.00;;
16502;SDS011;53067;48.114;11.694;2023-05-10T10:34:25;1.07;;;1.00;;
16502;SDS011;53067;48.114;11.694;2023-05-10T10:36:55;1.27;;;0.70;;
16502;SDS011;53067;48.114;11.694;2023-05-10T10:39:24;1.80;;;0.70;;
16502;SDS011;53067;48.114;11.694;2023-05-10T10:41:53;0.78;;;0.78;;
16502;SDS011;53067;48.114;11.694;2023-05-10T10:44:23;0.75;;;0.75;;
16502;SDS011;53067;48.114;11.694;2023-05-10T10:49:51;1.05;;;0.90;;
16502;SDS011;53067;48.114;11.694;2023-05-10T10:52:23;1.05;;;1.05;;
16502;SDS011;53067;48.114;11.694;2023-05-10T10:55:02;1.57;;;1.47;;
16502;SDS011;53067;48.114;11.694;2023-05-10T11:00:21;0.82;;;0.80;;
16502;SDS011;53067;48.114;11.694;2023-05-10T11:02:51;2.40;;;0.80;;
16502;SDS011;53067;48.114;11.694;2023-05-10T11:08:10;0.68;;;0.65;;
16502;SDS011;53067;48.114;11.694;2023-05-10T11:10:48;1.13;;;0.90;;
16502;SDS011;53067;48.114;11.694;2023-05-10T11:13:09;0.95;;;0.95;;
16502;SDS011;53067;48.114;11.694;2023-05-10T11:15:37;1.80;;;1.30;;
16502;SDS011;53067;48.114;11.694;2023-05-10T11:18:25;1.70;;;1.20;;
16502;SDS011;53067;48.114;11.694;2023-05-10T11:20:58;1.87;;;1.17;;
16502;SDS011;53067;48.114;11.694;2023-05-10T11:23:32;2.15;;;1.35;;
16502;SDS011;53067;48.114;11.694;2023-05-10T11:26:07;1.30;;;1.30;;
16502;SDS011;53067;48.114;11.694;2023-05-10T11:28:43;1.50;;;1.40;;
16502;SDS011;53067;48.114;11.694;2023-05-10T11:31:14;1.07;;;1.07;;
16502;SDS011;53067;48.114;11.694;2023-05-10T11:33:47;1.47;;;1.27;;
16502;SDS011;53067;48.114;11.694;2023-05-10T11:36:19;2.00;;;1.00;;
16502;SDS011;53067;48.114;11.694;2023-05-10T11:38:48;2.33;;;1.00;;
16502;SDS011;53067;48.114;11.694;2023-05-10T11:41:16;1.10;;;1.10;;
16502;SDS011;53067;48.114;11.694;2023-05-10T11:43:46;1.33;;;1.20;;
16502;SDS011;53067;48.114;11.694;2023-05-10T11:46:16;1.53;;;1.43;;
16502;SDS011;53067;48.114;11.694;2023-05-10T11:48:49;1.43;;;1.30;;
16502;SDS011;53067;48.114;11.694;2023-05-10T11:51:22;1.33;;;1.10;;
16502;SDS011;53067;48.114;11.694;2023-05-10T11:53:51;1.10;;;1.07;;
16502;SDS011;53067;48.114;11.694;2023-05-10T11:56:20;0.90;;;0.90;;
16502;SDS011;53067;48.114;11.694;2023-05-10T11:58:55;1.47;;;1.20;;
16502;SDS011;53067;48.114;11.694;2023-05-10T12:01:24;3.43;;;1.83;;
16502;SDS011;53067;48.114;11.694;2023-05-10T12:03:54;1.50;;;1.40;;
16502;SDS011;53067;48.114;11.694;2023-05-10T12:06:26;1.87;;;1.60;;
16502;SDS011;53067;48.114;11.694;2023-05-10T12:08:55;4.97;;;2.63;;
16502;SDS011;53067;48.114;11.694;2023-05-10T12:11:26;3.30;;;2.67;;
16502;SDS011;53067;48.114;11.694;2023-05-10T12:13:55;3.57;;;2.57;;
16502;SDS011;53067;48.114;11.694;2023-05-10T12:16:24;5.87;;;2.80;;
16502;SDS011;53067;48.114;11.694;2023-05-10T12:19:11;2.77;;;2.30;;
16502;SDS011;53067;48.114;11.694;2023-05-10T12:21:38;6.13;;;2.67;;
16502;SDS011;53067;48.114;11.694;2023-05-10T12:24:07;4.10;;;2.57;;
16502;SDS011;53067;48.114;11.694;2023-05-10T12:26:35;3.13;;;2.40;;
16502;SDS011;53067;48.114;11.694;2023-05-10T12:29:15;3.77;;;2.00;;
16502;SDS011;53067;48.114;11.694;2023-05-10T12:31:51;3.00;;;1.73;;
16502;SDS011;53067;48.114;11.694;2023-05-10T12:34:30;2.23;;;1.83;;
16502;SDS011;53067;48.114;11.694;2023-05-10T12:37:02;1.57;;;1.47;;
16502;SDS011;53067;48.114;11.694;2023-05-10T12:39:40;1.47;;;1.37;;
16502;SDS011;53067;48.114;11.694;2023-05-10T12:42:09;2.40;;;1.20;;
16502;SDS011;53067;48.114;11.694;2023-05-10T12:44:38;1.47;;;1.37;;
16502;SDS011;53067;48.114;11.694;2023-05-10T12:47:05;1.70;;;1.60;;
16502;SDS011;53067;48.114;11.694;2023-05-10T12:49:33;2.50;;;1.67;;
16502;SDS011;53067;48.114;11.694;2023-05-10T12:52:01;2.47;;;1.50;;
16502;SDS011;53067;48.114;11.694;2023-05-10T12:54:28;1.20;;;1.17;;
16502;SDS011;53067;48.114;11.694;2023-05-10T12:56:56;1.10;;;1.10;;
16502;SDS011;53067;48.114;11.694;2023-05-10T12:59:23;1.07;;;1.00;;
16502;SDS011;53067;48.114;11.694;2023-05-10T13:01:51;1.73;;;1.13;;
16502;SDS011;53067;48.114;11.694;2023-05-10T13:04:18;1.40;;;1.30;;
16502;SDS011;53067;48.114;11.694;2023-05-10T13:06:46;2.33;;;1.50;;
16502;SDS011;53067;48.114;11.694;2023-05-10T13:09:14;1.40;;;1.30;;
16502;SDS011;53067;48.114;11.694;2023-05-10T13:11:42;2.23;;;1.40;;
16502;SDS011;53067;48.114;11.694;2023-05-10T13:14:09;0.83;;;0.83;;
16502;SDS011;53067;48.114;11.694;2023-05-10T13:16:37;1.30;;;1.10;;
16502;SDS011;53067;48.114;11.694;2023-05-10T13:19:04;2.63;;;1.43;;
16502;SDS011;53067;48.114;11.694;2023-05-10T13:21:32;1.30;;;1.20;;
16502;SDS011;53067;48.114;11.694;2023-05-10T13:24:00;1.40;;;1.30;;
16502;SDS011;53067;48.114;11.694;2023-05-10T13:26:39;1.33;;;1.23;;
16502;SDS011;53067;48.114;11.694;2023-05-10T13:29:07;1.63;;;1.37;;
16502;SDS011;53067;48.114;11.694;2023-05-10T13:31:35;1.40;;;1.30;;
16502;SDS011;53067;48.114;11.694;2023-05-10T13:34:03;1.63;;;1.27;;
16502;SDS011;53067;48.114;11.694;2023-05-10T13:36:32;1.07;;;1.00;;
16502;SDS011;53067;48.114;11.694;2023-05-10T13:38:59;1.80;;;1.47;;
16502;SDS011;53067;48.114;11.694;2023-05-10T13:41:29;1.50;;;1.40;;
16502;SDS011;53067;48.114;11.694;2023-05-10T13:43:56;1.53;;;1.40;;
16502;SDS011;53067;48.114;11.694;2023-05-10T13:46:24;3.97;;;2.13;;
16502;SDS011;53067;48.114;11.694;2023-05-10T13:48:51;1.50;;;1.40;;
16502;SDS011;53067;48.114;11.694;2023-05-10T13:51:19;1.30;;;1.20;;
16502;SDS011;53067;48.114;11.694;2023-05-10T13:53:46;1.50;;;1.40;;
16502;SDS011;53067;48.114;11.694;2023-05-10T13:56:14;1.63;;;1.30;;
16502;SDS011;53067;48.114;11.694;2023-05-10T13:58:41;2.00;;;1.47;;
16502;SDS011;53067;48.114;11.694;2023-05-10T14:01:09;3.27;;;1.30;;
16502;SDS011;53067;48.114;11.694;2023-05-10T14:03:37;1.10;;;1.10;;
16502;SDS011;53067;48.114;11.694;2023-05-10T14:06:05;1.70;;;1.57;;
16502;SDS011;53067;48.114;11.694;2023-05-10T14:08:33;1.33;;;1.23;;
16502;SDS011;53067;48.114;11.694;2023-05-10T14:11:02;1.67;;;1.37;;
16502;SDS011;53067;48.114;11.694;2023-05-10T14:13:29;1.27;;;1.23;;
16502;SDS011;53067;48.114;11.694;2023-05-10T14:15:57;1.20;;;1.10;;
16502;SDS011;53067;48.114;11.694;2023-05-10T14:18:26;1.30;;;1.20;;
16502;SDS011;53067;48.114;11.694;2023-05-10T14:20:54;1.47;;;0.97;;
16502;SDS011;53067;48.114;11.694;2023-05-10T14:23:22;1.10;;;1.00;;
16502;SDS011;53067;48.114;11.694;2023-05-10T14:25:51;1.20;;;1.20;;
16502;SDS011;53067;48.114;11.694;2023-05-10T14:28:19;1.13;;;1.03;;
16502;SDS011;53067;48.114;11.694;2023-05-10T14:30:46;1.20;;;1.10;;
16502;SDS011;53067;48.114;11.694;2023-05-10T14:33:14;2.33;;;1.10;;
16502;SDS011;53067;48.114;11.694;2023-05-10T14:35:43;2.20;;;1.10;;
16502;SDS011;53067;48.114;11.694;2023-05-10T14:38:11;1.23;;;1.00;;
16502;SDS011;53067;48.114;11.694;2023-05-10T14:40:39;1.00;;;1.00;;
16502;SDS011;53067;48.114;11.694;2023-05-10T14:43:06;1.00;;;0.97;;
16502;SDS011;53067;48.114;11.694;2023-05-10T14:45:34;1.00;;;1.00;;
16502;SDS011;53067;48.114;11.694;2023-05-10T14:48:02;2.20;;;1.23;;
16502;SDS011;53067;48.114;11.694;2023-05-10T14:50:30;1.57;;;1.10;;
16502;SDS011;53067;48.114;11.694;2023-05-10T14:52:58;1.10;;;1.10;;
16502;SDS011;53067;48.114;11.694;2023-05-10T14:55:26;1.60;;;1.17;;
16502;SDS011;53067;48.114;11.694;2023-05-10T14:57:53;1.37;;;1.20;;
16502;SDS011;53067;48.114;11.694;2023-05-10T15:00:21;1.00;;;1.00;;
16502;SDS011;53067;48.114;11.694;2023-05-10T15:02:49;1.10;;;1.10;;
16502;SDS011;53067;48.114;11.694;2023-05-10T15:05:16;3.10;;;1.40;;
16502;SDS011;53067;48.114;11.694;2023-05-10T15:07:44;0.90;;;0.90;;
16502;SDS011;53067;48.114;11.694;2023-05-10T15:10:12;1.70;;;1.20;;
16502;SDS011;53067;48.114;11.694;2023-05-10T15:12:39;1.40;;;0.90;;